Time,TemperatureF,DewpointF,PressureIn,WindDirection,WindDirectionDegrees,WindSpeedMPH,WindSpeedGustMPH,Humidity,HourlyPrecipIn,Conditions,Clouds,dailyrainin,SoftwareType,DateUTC
2013-11-22 00:04:00,51.4,39.6,28.20,North,6,0.0,0.0,64,0.00,,,0.00,WSDL version 420,2013-11-22 05:04:00,
2013-11-22 00:09:00,51.1,39.4,28.20,North,360,0.0,0.0,64,0.00,,,0.00,WSDL version 420,2013-11-22 05:09:00,
2013-11-22 00:14:00,51.0,39.2,28.20,ENE,68,0.0,0.0,64,0.00,,,0.00,WSDL version 420,2013-11-22 05:14:00,
2013-11-22 00:19:00,51.1,39.8,28.20,ENE,68,0.0,0.0,65,0.00,,,0.00,WSDL version 420,2013-11-22 05:19:00,
2013-11-22 00:24:00,51.3,40.1,28.20,ENE,68,0.0,0.0,66,0.00,,,0.00,WSDL version 420,2013-11-22 05:24:00,
2013-11-22 00:29:00,51.3,40.4,28.20,ENE,68,0.0,0.0,66,0.00,,,0.00,WSDL version 420,2013-11-22 05:29:00,
2013-11-22 00:34:00,51.2,40.1,28.20,NNE,15,0.0,0.0,65,0.00,,,0.00,WSDL version 420,2013-11-22 05:34:00,
2013-11-22 00:39:00,51.0,39.7,28.20,ENE,68,0.0,0.0,65,0.00,,,0.00,WSDL version 420,2013-11-22 05:39:00,
2013-11-22 00:44:00,51.1,39.9,28.20,NNE,23,0.0,0.0,66,0.00,,,0.00,WSDL version 420,2013-11-22 05:44:00,
2013-11-22 00:49:00,51.3,40.3,28.17,NNE,23,0.0,0.0,66,0.00,,,0.00,WSDL version 420,2013-11-22 05:49:00,
2013-11-22 00:54:00,51.2,40.2,28.17,NNE,23,0.0,0.0,66,-99.99,,,-99.99,WSDL version 420,2013-11-22 05:54:00,
2013-11-22 00:59:00,51.0,40.0,28.17,NNE,23,0.0,0.0,66,0.00,,,0.00,WSDL version 420,2013-11-22 05:59:00,
2013-11-22 01:04:00,51.1,40.1,28.17,NNE,23,0.0,0.0,66,0.00,,,0.00,WSDL version 420,2013-11-22 06:04:00,
2013-11-22 01:09:00,51.3,40.7,28.17,NNE,23,0.0,0.0,67,0.00,,,0.00,WSDL version 420,2013-11-22 06:09:00,
2013-11-22 01:14:00,51.4,40.8,28.17,North,360,0.0,0.0,67,0.00,,,0.00,WSDL version 420,2013-11-22 06:14:00,
2013-11-22 01:19:00,51.3,40.7,28.17,NE,45,0.0,0.0,67,0.00,,,0.00,WSDL version 420,2013-11-22 06:19:00,
2013-11-22 01:24:00,51.4,41.1,28.17,NNE,23,0.0,0.0,68,0.00,,,0.00,WSDL version 420,2013-11-22 06:24:00,
2013-11-22 01:29:00,51.3,41.1,28.17,North,360,0.0,0.0,68,0.00,,,0.00,WSDL version 420,2013-11-22 06:29:00,
2013-11-22 01:34:00,51.4,41.2,28.17,NNE,23,0.0,0.0,68,0.00,,,0.00,WSDL version 420,2013-11-22 06:34:00,
2013-11-22 01:39:00,51.4,41.2,28.17,ENE,68,0.0,0.0,68,0.00,,,0.00,WSDL version 420,2013-11-22 06:39:00,
2013-11-22 01:44:00,51.4,41.2,28.17,ENE,68,0.0,0.0,68,0.00,,,0.00,WSDL version 420,2013-11-22 06:44:00,
2013-11-22 01:49:00,51.4,41.4,28.14,NNE,23,0.0,0.0,68,0.00,,,0.00,WSDL version 420,2013-11-22 06:49:00,
2013-11-22 01:54:00,51.4,41.2,28.14,North,360,0.0,0.0,68,0.00,,,0.00,WSDL version 420,2013-11-22 06:54:00,
2013-11-22 01:59:00,51.6,41.4,28.14,North,8,0.0,0.0,68,0.00,,,0.00,WSDL version 420,2013-11-22 06:59:00,
2013-11-22 02:09:00,51.6,41.8,28.14,North,360,0.0,0.0,69,0.00,,,0.00,WSDL version 420,2013-11-22 07:09:00,
2013-11-22 02:14:00,51.4,41.6,28.14,North,360,0.0,0.0,69,0.00,,,0.00,WSDL version 420,2013-11-22 07:14:00,
2013-11-22 02:19:00,51.4,41.6,28.14,NNE,23,0.0,0.0,69,0.00,,,0.00,WSDL version 420,2013-11-22 07:19:00,
2013-11-22 02:24:00,51.4,41.6,28.14,NNE,23,0.0,0.0,69,0.00,,,0.00,WSDL version 420,2013-11-22 07:24:00,
2013-11-22 02:29:00,51.4,41.6,28.14,NNE,23,0.0,0.0,69,0.00,,,0.00,WSDL version 420,2013-11-22 07:29:00,
2013-11-22 02:34:00,51.4,41.6,28.14,NNE,23,0.0,0.0,69,0.00,,,0.00,WSDL version 420,2013-11-22 07:34:00,
2013-11-22 02:39:00,51.6,42.2,28.14,NNE,23,0.0,0.0,70,0.00,,,0.00,WSDL version 420,2013-11-22 07:39:00,
2013-11-22 02:44:00,51.6,42.2,28.14,NNE,23,0.0,0.0,70,0.00,,,0.00,WSDL version 420,2013-11-22 07:44:00,
2013-11-22 02:49:00,51.7,42.2,28.14,NNE,23,0.0,0.0,70,0.00,,,0.00,WSDL version 420,2013-11-22 07:49:00,
2013-11-22 02:54:00,51.7,42.3,28.14,NNE,23,0.0,0.0,70,0.00,,,0.00,WSDL version 420,2013-11-22 07:54:00,
2013-11-22 02:59:00,51.5,42.1,28.14,NNE,23,0.0,0.0,70,0.00,,,0.00,WSDL version 420,2013-11-22 07:59:00,
2013-11-22 03:04:00,51.4,42.0,28.14,North,360,0.0,0.0,70,0.00,,,0.00,WSDL version 420,2013-11-22 08:04:00,
2013-11-22 03:09:00,51.6,42.2,28.14,NNE,15,0.0,0.0,70,0.00,,,0.00,WSDL version 420,2013-11-22 08:09:00,
2013-11-22 03:14:00,51.4,42.0,28.14,NNE,23,0.0,0.0,70,0.00,,,0.00,WSDL version 420,2013-11-22 08:14:00,
2013-11-22 03:19:00,51.4,42.0,28.14,NNE,23,0.0,0.0,70,0.00,,,0.00,WSDL version 420,2013-11-22 08:19:00,
2013-11-22 03:24:00,51.4,42.0,28.14,NNE,23,0.0,0.0,70,0.00,,,0.00,WSDL version 420,2013-11-22 08:24:00,
2013-11-22 03:29:00,51.4,42.0,28.14,ENE,68,0.0,0.0,70,0.00,,,0.00,WSDL version 420,2013-11-22 08:29:00,
2013-11-22 03:34:00,51.5,42.1,28.14,ENE,68,0.0,0.0,70,0.00,,,0.00,WSDL version 420,2013-11-22 08:34:00,
2013-11-22 03:39:00,51.5,42.3,28.14,ENE,68,0.0,0.0,71,0.00,,,0.00,WSDL version 420,2013-11-22 08:39:00,
2013-11-22 03:44:00,51.6,42.5,28.14,ENE,68,0.0,0.0,71,0.00,,,0.00,WSDL version 420,2013-11-22 08:44:00,
2013-11-22 03:49:00,51.4,42.4,28.14,ENE,68,0.0,0.0,71,0.00,,,0.00,WSDL version 420,2013-11-22 08:49:00,
2013-11-22 03:54:00,51.6,42.5,28.14,ENE,68,0.0,0.0,71,0.00,,,0.00,WSDL version 420,2013-11-22 08:54:00,
2013-11-22 03:59:00,51.6,42.5,28.14,ENE,68,0.0,0.0,71,0.00,,,0.00,WSDL version 420,2013-11-22 08:59:00,
2013-11-22 04:04:00,51.4,42.4,28.14,NNE,23,0.0,0.0,71,0.00,,,0.00,WSDL version 420,2013-11-22 09:04:00,
2013-11-22 04:09:00,51.4,42.4,28.14,NNE,23,0.0,0.0,71,0.00,,,0.00,WSDL version 420,2013-11-22 09:09:00,
2013-11-22 04:14:00,51.3,42.2,28.14,North,360,0.0,0.0,71,0.00,,,0.00,WSDL version 420,2013-11-22 09:14:00,
2013-11-22 04:19:00,51.4,42.3,28.14,ENE,68,0.0,0.0,71,0.00,,,0.00,WSDL version 420,2013-11-22 09:19:00,
2013-11-22 04:24:00,51.4,42.4,28.14,ENE,68,0.0,0.0,71,0.00,,,0.00,WSDL version 420,2013-11-22 09:24:00,
2013-11-22 04:29:00,51.4,42.3,28.14,ENE,68,0.0,0.0,71,0.00,,,0.00,WSDL version 420,2013-11-22 09:29:00,
2013-11-22 04:34:00,51.4,42.4,28.14,ENE,68,0.0,0.0,71,0.00,,,0.00,WSDL version 420,2013-11-22 09:34:00,
2013-11-22 04:39:00,51.4,42.3,28.14,ENE,68,0.0,0.0,71,0.00,,,0.00,WSDL version 420,2013-11-22 09:39:00,
2013-11-22 04:44:00,51.3,42.2,28.14,NE,45,0.0,0.0,71,0.00,,,0.00,WSDL version 420,2013-11-22 09:44:00,
2013-11-22 04:49:00,51.3,42.5,28.14,NE,45,0.0,0.0,72,0.00,,,0.00,WSDL version 420,2013-11-22 09:49:00,
2013-11-22 04:54:00,51.4,42.7,28.14,ENE,68,0.0,0.0,72,0.00,,,0.00,WSDL version 420,2013-11-22 09:54:00,
2013-11-22 04:59:00,51.4,42.7,28.14,ENE,68,0.0,0.0,72,0.00,,,0.00,WSDL version 420,2013-11-22 09:59:00,
2013-11-22 05:04:00,51.6,42.8,28.14,ENE,68,0.0,0.0,72,0.00,,,0.00,WSDL version 420,2013-11-22 10:04:00,
2013-11-22 05:09:00,51.5,42.9,28.14,ENE,68,0.0,0.0,73,0.00,,,0.00,WSDL version 420,2013-11-22 10:09:00,
2013-11-22 05:14:00,51.6,43.3,28.14,ENE,68,0.0,0.0,73,0.00,,,0.00,WSDL version 420,2013-11-22 10:14:00,
2013-11-22 05:19:00,51.6,43.1,28.14,ENE,68,0.0,0.0,72,0.00,,,0.00,WSDL version 420,2013-11-22 10:19:00,
2013-11-22 05:24:00,51.4,42.7,28.14,NNE,23,0.0,0.0,72,0.00,,,0.00,WSDL version 420,2013-11-22 10:24:00,
2013-11-22 05:29:00,51.4,42.7,28.14,NNE,23,0.0,0.0,72,0.00,,,0.00,WSDL version 420,2013-11-22 10:29:00,
2013-11-22 05:34:00,51.4,42.9,28.14,NNE,23,0.0,0.0,73,0.00,,,0.00,WSDL version 420,2013-11-22 10:34:00,
2013-11-22 05:44:00,51.4,43.1,28.14,NE,38,0.0,0.0,73,0.00,,,0.00,WSDL version 420,2013-11-22 10:44:00,
2013-11-22 05:49:00,51.6,43.3,28.14,ENE,68,0.0,0.0,73,0.00,,,0.00,WSDL version 420,2013-11-22 10:49:00,
2013-11-22 05:54:00,51.6,43.2,28.14,ENE,68,0.0,0.0,73,0.00,,,0.00,WSDL version 420,2013-11-22 10:54:00,
2013-11-22 05:59:00,51.6,43.3,28.14,ENE,68,0.0,0.0,73,0.00,,,0.00,WSDL version 420,2013-11-22 10:59:00,
2013-11-22 06:04:00,51.6,43.2,28.14,ENE,68,0.0,0.0,73,0.00,,,0.00,WSDL version 420,2013-11-22 11:04:00,
2013-11-22 06:09:00,51.4,43.1,28.14,ENE,68,0.0,0.0,73,0.00,,,0.00,WSDL version 420,2013-11-22 11:09:00,
2013-11-22 06:14:00,51.4,43.1,28.14,ENE,68,0.0,0.0,73,0.00,,,0.00,WSDL version 420,2013-11-22 11:14:00,
2013-11-22 06:19:00,51.4,43.1,28.14,ESE,113,1.3,1.3,73,0.00,,,0.00,WSDL version 420,2013-11-22 11:19:00,
2013-11-22 06:24:00,51.4,43.0,28.14,ESE,113,1.3,1.3,73,0.00,,,0.00,WSDL version 420,2013-11-22 11:24:00,
2013-11-22 06:29:00,51.4,43.0,28.14,NNE,23,0.3,1.3,73,0.00,,,0.00,WSDL version 420,2013-11-22 11:29:00,
2013-11-22 06:34:00,51.3,42.9,28.14,NNE,23,0.0,1.3,73,0.00,,,0.00,WSDL version 420,2013-11-22 11:34:00,
2013-11-22 06:39:00,51.3,42.9,28.14,NNE,23,0.0,0.0,73,0.00,,,0.00,WSDL version 420,2013-11-22 11:39:00,
2013-11-22 06:44:00,51.3,42.9,28.14,ENE,68,0.0,0.0,73,0.00,,,0.00,WSDL version 420,2013-11-22 11:44:00,
2013-11-22 06:49:00,51.3,43.1,28.14,ENE,68,0.0,0.0,74,0.00,,,0.00,WSDL version 420,2013-11-22 11:49:00,
2013-11-22 06:54:00,51.5,43.5,28.14,ENE,68,0.0,0.0,74,0.00,,,0.00,WSDL version 420,2013-11-22 11:54:00,
2013-11-22 06:59:00,51.5,43.5,28.14,ENE,68,0.0,0.0,74,0.00,,,0.00,WSDL version 420,2013-11-22 11:59:00,
2013-11-22 07:04:00,51.4,43.4,28.14,ENE,68,0.0,0.0,74,0.00,,,0.00,WSDL version 420,2013-11-22 12:04:00,
2013-11-22 07:09:00,51.3,43.3,28.14,ENE,68,0.0,0.0,74,0.00,,,0.00,WSDL version 420,2013-11-22 12:09:00,
2013-11-22 07:14:00,51.4,43.4,28.14,ENE,68,0.0,0.0,74,0.00,,,0.00,WSDL version 420,2013-11-22 12:14:00,
2013-11-22 07:19:00,51.5,43.5,28.14,ENE,68,0.0,0.0,74,0.00,,,0.00,WSDL version 420,2013-11-22 12:19:00,
2013-11-22 07:24:00,51.6,43.6,28.14,ENE,68,0.0,0.0,74,0.00,,,0.00,WSDL version 420,2013-11-22 12:24:00,
2013-11-22 07:29:00,51.6,43.6,28.14,ENE,68,0.0,0.0,74,0.00,,,0.00,WSDL version 420,2013-11-22 12:29:00,
2013-11-22 07:34:00,51.6,43.6,28.14,ESE,113,1.3,1.3,74,0.00,,,0.00,WSDL version 420,2013-11-22 12:34:00,
2013-11-22 07:39:00,51.7,43.7,28.14,ENE,68,2.5,2.5,74,0.00,,,0.00,WSDL version 420,2013-11-22 12:39:00,
2013-11-22 07:44:00,51.8,43.8,28.14,ENE,68,2.5,2.5,74,0.00,,,0.00,WSDL version 420,2013-11-22 12:44:00,
2013-11-22 07:49:00,52.0,44.0,28.14,ENE,68,2.5,2.5,74,0.00,,,0.00,WSDL version 420,2013-11-22 12:49:00,
2013-11-22 07:54:00,52.2,44.2,28.14,North,-999,-999.0,-999.0,74,0.00,,,0.00,WSDL version 420,2013-11-22 12:54:00,
2013-11-22 07:59:00,52.3,44.2,28.14,NNE,23,0.0,0.0,74,0.00,,,0.00,WSDL version 420,2013-11-22 12:59:00,
2013-11-22 08:04:00,52.3,44.3,28.14,North,360,0.0,0.0,74,0.00,,,0.00,WSDL version 420,2013-11-22 13:04:00,
2013-11-22 08:09:00,52.4,44.4,28.14,North,360,0.0,0.0,74,0.00,,,0.00,WSDL version 420,2013-11-22 13:09:00,
2013-11-22 08:14:00,52.6,44.6,28.14,North,360,0.0,0.0,74,0.00,,,0.00,WSDL version 420,2013-11-22 13:14:00,
2013-11-22 08:19:00,52.8,44.8,28.14,North,360,0.0,0.0,74,0.00,,,0.00,WSDL version 420,2013-11-22 13:19:00,
2013-11-22 08:24:00,53.0,45.1,28.14,North,360,0.0,0.0,75,0.00,,,0.00,WSDL version 420,2013-11-22 13:24:00,
2013-11-22 08:29:00,53.1,45.4,28.14,North,360,0.0,0.0,75,0.00,,,0.00,WSDL version 420,2013-11-22 13:29:00,
2013-11-22 08:34:00,53.3,45.6,28.14,North,360,0.0,0.0,75,0.00,,,0.00,WSDL version 420,2013-11-22 13:34:00,
2013-11-22 08:39:00,53.6,45.6,28.14,North,-999,-999.0,-999.0,74,0.00,,,0.00,WSDL version 420,2013-11-22 13:39:00,
2013-11-22 08:44:00,54.1,46.0,28.14,North,-999,-999.0,-999.0,74,0.00,,,0.00,WSDL version 420,2013-11-22 13:44:00,
2013-11-22 08:49:00,54.4,46.5,28.14,North,-999,-999.0,-999.0,75,0.00,,,0.00,WSDL version 420,2013-11-22 13:49:00,
2013-11-22 08:54:00,54.5,46.6,28.14,North,-999,-999.0,-999.0,74,0.00,,,0.00,WSDL version 420,2013-11-22 13:54:00,
2013-11-22 08:59:00,54.7,46.6,28.14,North,-999,-999.0,-999.0,74,0.00,,,0.00,WSDL version 420,2013-11-22 13:59:00,
2013-11-22 09:04:00,54.9,46.8,28.14,East,90,0.0,0.0,74,0.00,,,0.00,WSDL version 420,2013-11-22 14:04:00,
2013-11-22 09:09:00,55.2,47.0,28.14,East,90,0.0,0.0,74,0.00,,,0.00,WSDL version 420,2013-11-22 14:09:00,
2013-11-22 09:15:00,55.7,47.3,28.14,ESE,113,0.0,0.0,73,0.00,,,0.00,WSDL version 420,2013-11-22 14:15:00,
2013-11-22 09:20:00,56.0,47.5,28.14,SSW,203,0.0,0.0,73,0.00,,,0.00,WSDL version 420,2013-11-22 14:20:00,
2013-11-22 09:25:00,56.4,47.8,28.14,ESE,113,0.0,0.0,73,0.00,,,0.00,WSDL version 420,2013-11-22 14:25:00,
2013-11-22 09:30:00,56.7,48.1,28.14,East,90,0.0,0.0,73,0.00,,,0.00,WSDL version 420,2013-11-22 14:30:00,
2013-11-22 09:35:00,56.8,48.0,28.14,South,180,0.4,1.3,72,0.00,,,0.00,WSDL version 420,2013-11-22 14:35:00,
2013-11-22 09:40:00,57.1,48.0,28.14,South,180,0.0,1.3,71,0.00,,,0.00,WSDL version 420,2013-11-22 14:40:00,
2013-11-22 09:45:00,57.3,48.0,28.14,SSW,203,0.0,0.0,71,0.00,,,0.00,WSDL version 420,2013-11-22 14:45:00,
2013-11-22 09:50:00,57.3,47.8,28.14,SSW,203,0.0,0.0,70,0.00,,,0.00,WSDL version 420,2013-11-22 14:50:00,
2013-11-22 09:55:00,57.3,47.6,28.14,SSW,203,0.0,0.0,70,0.00,,,0.00,WSDL version 420,2013-11-22 14:55:00,
2013-11-22 10:00:00,57.3,47.6,28.14,WSW,248,0.0,0.0,70,0.00,,,0.00,WSDL version 420,2013-11-22 15:00:00,
2013-11-22 10:05:00,57.6,47.9,28.14,WSW,248,0.0,0.0,70,0.00,,,0.00,WSDL version 420,2013-11-22 15:05:00,
2013-11-22 10:10:00,57.7,47.6,28.14,WSW,248,0.0,0.0,69,0.00,,,0.00,WSDL version 420,2013-11-22 15:10:00,
2013-11-22 10:15:00,58.0,47.9,28.14,North,-999,-999.0,-999.0,69,0.00,,,0.00,WSDL version 420,2013-11-22 15:15:00,
2013-11-22 10:20:00,58.1,47.9,28.14,North,-999,-999.0,-999.0,68,0.00,,,0.00,WSDL version 420,2013-11-22 15:20:00,
2013-11-22 10:25:00,58.2,47.7,28.14,SSW,203,2.9,2.9,68,0.00,,,0.00,WSDL version 420,2013-11-22 15:25:00,
2013-11-22 10:30:00,58.3,47.8,28.14,WSW,248,0.9,2.9,68,0.00,,,0.00,WSDL version 420,2013-11-22 15:30:00,
2013-11-22 10:35:00,58.5,48.0,28.14,SW,225,0.4,2.9,68,0.00,,,0.00,WSDL version 420,2013-11-22 15:35:00,
2013-11-22 10:40:00,58.8,48.2,28.14,SSW,203,0.0,0.9,68,0.00,,,0.00,WSDL version 420,2013-11-22 15:40:00,
2013-11-22 10:45:00,58.8,48.2,28.14,SSW,203,0.0,0.0,68,0.00,,,0.00,WSDL version 420,2013-11-22 15:45:00,
2013-11-22 10:50:00,58.8,48.3,28.14,NW,315,2.0,2.0,68,0.00,,,0.00,WSDL version 420,2013-11-22 15:50:00,
2013-11-22 10:55:00,58.8,47.9,28.14,ESE,113,1.5,2.0,67,0.00,,,0.00,WSDL version 420,2013-11-22 15:55:00,
2013-11-22 11:00:00,58.8,47.9,28.14,North,360,0.7,2.0,67,0.00,,,0.00,WSDL version 420,2013-11-22 16:00:00,
2013-11-22 11:05:00,58.9,48.0,28.14,SW,214,0.0,1.3,67,0.00,,,0.00,WSDL version 420,2013-11-22 16:05:00,
2013-11-22 11:10:00,58.8,47.9,28.14,SSW,203,0.6,1.1,67,0.00,,,0.00,WSDL version 420,2013-11-22 16:10:00,
2013-11-22 11:15:00,58.8,47.9,28.14,SSE,158,1.1,1.1,67,0.00,,,0.00,WSDL version 420,2013-11-22 16:15:00,
2013-11-22 11:20:00,58.9,47.7,28.14,SSE,158,0.9,1.1,66,0.00,,,0.00,WSDL version 420,2013-11-22 16:20:00,
2013-11-22 11:25:00,59.2,47.8,28.14,SW,214,0.6,1.1,66,0.00,,,0.00,WSDL version 420,2013-11-22 16:25:00,
2013-11-22 11:30:00,59.2,47.8,28.14,South,188,2.1,3.1,66,0.00,,,0.00,WSDL version 420,2013-11-22 16:30:00,
2013-11-22 11:35:00,59.2,47.8,28.11,SSE,158,0.6,3.1,66,0.00,,,0.00,WSDL version 420,2013-11-22 16:35:00,
2013-11-22 11:40:00,59.2,47.8,28.11,SSW,203,0.0,0.9,66,0.00,,,0.00,WSDL version 420,2013-11-22 16:40:00,
2013-11-22 11:45:00,59.2,47.8,28.11,SE,135,1.3,1.3,66,0.00,,,0.00,WSDL version 420,2013-11-22 16:45:00,
2013-11-22 11:50:00,59.2,47.9,28.11,SE,135,1.3,1.3,66,0.00,,,0.00,WSDL version 420,2013-11-22 16:50:00,
2013-11-22 11:55:00,59.2,47.8,28.11,SE,135,1.3,1.3,66,0.00,,,0.00,WSDL version 420,2013-11-22 16:55:00,
2013-11-22 12:00:00,59.2,47.8,28.11,North,-999,-999.0,-999.0,66,0.00,,,0.00,WSDL version 420,2013-11-22 17:00:00,
2013-11-22 12:05:00,59.2,47.8,28.11,North,-999,-999.0,-999.0,66,0.00,,,0.00,WSDL version 420,2013-11-22 17:05:00,
2013-11-22 12:10:00,59.3,48.0,28.11,North,-999,-999.0,-999.0,66,0.00,,,0.00,WSDL version 420,2013-11-22 17:10:00,
2013-11-22 12:15:00,59.2,47.9,28.11,North,-999,-999.0,-999.0,66,0.00,,,0.00,WSDL version 420,2013-11-22 17:15:00,
2013-11-22 12:20:00,59.1,48.1,28.11,North,360,3.8,3.8,67,0.00,,,0.00,WSDL version 420,2013-11-22 17:20:00,
2013-11-22 12:25:00,58.8,47.8,28.11,North,360,3.8,3.8,67,0.00,,,0.00,WSDL version 420,2013-11-22 17:25:00,
2013-11-22 12:30:00,58.5,47.6,28.11,North,360,3.8,3.8,67,0.00,,,0.00,WSDL version 420,2013-11-22 17:30:00,
2013-11-22 12:35:00,58.4,47.9,28.11,North,-999,-999.0,-999.0,68,0.00,,,0.00,WSDL version 420,2013-11-22 17:35:00,
2013-11-22 12:40:00,58.3,47.8,28.11,WSW,248,0.0,3.8,68,0.00,,,0.00,WSDL version 420,2013-11-22 17:40:00,
2013-11-22 12:45:00,58.2,47.9,28.11,WSW,248,2.5,2.5,69,0.00,,,0.00,WSDL version 420,2013-11-22 17:45:00,
2013-11-22 12:50:00,58.1,48.0,28.11,SSW,203,0.0,2.5,69,0.00,,,0.00,WSDL version 420,2013-11-22 17:50:00,
2013-11-22 12:55:00,58.0,47.9,28.11,SW,214,0.0,0.0,69,0.00,,,0.00,WSDL version 420,2013-11-22 17:55:00,
2013-11-22 13:00:00,57.7,48.0,28.11,South,180,0.0,0.0,70,0.00,,,0.00,WSDL version 420,2013-11-22 18:00:00,
2013-11-22 13:05:00,57.5,48.2,28.11,South,180,0.0,0.0,71,0.00,,,0.00,WSDL version 420,2013-11-22 18:05:00,
2013-11-22 13:15:00,57.1,48.3,28.11,North,-999,-999.0,-999.0,73,0.00,,,0.00,WSDL version 420,2013-11-22 18:15:00,
2013-11-22 13:20:00,57.0,48.7,28.08,North,-999,-999.0,-999.0,74,0.00,,,0.00,WSDL version 420,2013-11-22 18:20:00,
2013-11-22 13:25:00,56.8,48.7,28.08,North,-999,-999.0,-999.0,74,0.00,,,0.00,WSDL version 420,2013-11-22 18:25:00,
2013-11-22 13:30:00,57.0,48.8,28.08,North,-999,-999.0,-999.0,74,0.00,,,0.00,WSDL version 420,2013-11-22 18:30:00,
2013-11-22 13:35:00,57.0,49.2,28.08,North,-999,-999.0,-999.0,75,0.00,,,0.00,WSDL version 420,2013-11-22 18:35:00,
2013-11-22 13:40:00,57.0,49.2,28.08,North,-999,-999.0,-999.0,75,0.00,,,0.00,WSDL version 420,2013-11-22 18:40:00,
2013-11-22 13:45:00,56.9,49.2,28.08,North,-999,-999.0,-999.0,76,0.00,,,0.00,WSDL version 420,2013-11-22 18:45:00,
2013-11-22 13:50:00,56.8,49.4,28.08,North,-999,-999.0,-999.0,76,0.00,,,0.00,WSDL version 420,2013-11-22 18:50:00,
2013-11-22 13:55:00,56.8,49.4,28.08,North,-999,-999.0,-999.0,76,0.00,,,0.00,WSDL version 420,2013-11-22 18:55:00,
2013-11-22 14:00:00,56.7,49.2,28.08,North,-999,-999.0,-999.0,76,0.00,,,0.00,WSDL version 420,2013-11-22 19:00:00,
2013-11-22 14:07:00,56.7,49.3,28.08,North,-999,-999.0,-999.0,77,0.00,,,0.00,WSDL version 420,2013-11-22 19:07:00,
2013-11-22 14:12:00,56.6,49.5,28.08,North,-999,-999.0,-999.0,77,0.00,,,0.00,WSDL version 420,2013-11-22 19:12:00,
2013-11-22 14:17:00,56.5,49.4,28.08,North,-999,-999.0,-999.0,77,0.00,,,0.00,WSDL version 420,2013-11-22 19:17:00,
2013-11-22 14:22:00,56.3,49.2,28.08,North,-999,-999.0,-999.0,77,0.00,,,0.00,WSDL version 420,2013-11-22 19:22:00,
2013-11-22 14:27:00,56.3,49.5,28.08,North,-999,-999.0,-999.0,78,0.00,,,0.00,WSDL version 420,2013-11-22 19:27:00,
2013-11-22 14:32:00,56.4,49.6,28.05,North,-999,-999.0,-999.0,78,0.00,,,0.00,WSDL version 420,2013-11-22 19:32:00,
2013-11-22 14:37:00,56.3,49.5,28.05,North,-999,-999.0,-999.0,78,0.04,,,0.04,WSDL version 420,2013-11-22 19:37:00,
2013-11-22 14:42:00,56.3,49.8,28.05,North,-999,-999.0,-999.0,79,0.04,,,0.04,WSDL version 420,2013-11-22 19:42:00,
2013-11-22 14:47:00,56.3,49.9,28.05,North,-999,-999.0,-999.0,79,0.04,,,0.04,WSDL version 420,2013-11-22 19:47:00,
2013-11-22 14:52:00,56.1,49.7,28.05,North,-999,-999.0,-999.0,79,0.04,,,0.04,WSDL version 420,2013-11-22 19:52:00,
2013-11-22 14:57:00,56.0,49.6,28.05,North,-999,-999.0,-999.0,79,0.04,,,0.04,WSDL version 420,2013-11-22 19:57:00,
2013-11-22 15:02:00,56.1,49.7,28.05,North,-999,-999.0,-999.0,79,0.04,,,0.04,WSDL version 420,2013-11-22 20:02:00,
2013-11-22 15:07:00,56.1,49.7,28.05,North,-999,-999.0,-999.0,79,0.04,,,0.04,WSDL version 420,2013-11-22 20:07:00,
2013-11-22 15:12:00,55.9,49.5,28.05,North,-999,-999.0,-999.0,79,0.04,,,0.04,WSDL version 420,2013-11-22 20:12:00,
2013-11-22 15:17:00,55.9,49.6,28.05,North,-999,-999.0,-999.0,80,0.04,,,0.04,WSDL version 420,2013-11-22 20:17:00,
2013-11-22 15:22:00,55.9,49.9,28.05,North,-999,-999.0,-999.0,80,0.04,,,0.04,WSDL version 420,2013-11-22 20:22:00,
2013-11-22 15:27:00,55.8,49.8,28.05,North,-999,-999.0,-999.0,80,0.04,,,0.04,WSDL version 420,2013-11-22 20:27:00,
2013-11-22 15:32:00,55.8,49.7,28.05,North,-999,-999.0,-999.0,80,0.04,,,0.04,WSDL version 420,2013-11-22 20:32:00,
2013-11-22 15:37:00,55.8,49.7,28.05,North,-999,-999.0,-999.0,80,0.00,,,0.04,WSDL version 420,2013-11-22 20:37:00,
2013-11-22 15:42:00,55.7,49.6,28.05,North,-999,-999.0,-999.0,80,0.00,,,0.04,WSDL version 420,2013-11-22 20:42:00,
2013-11-22 15:47:00,55.6,49.5,28.05,North,-999,-999.0,-999.0,80,0.00,,,0.04,WSDL version 420,2013-11-22 20:47:00,
2013-11-22 15:52:00,55.6,49.5,28.05,North,-999,-999.0,-999.0,80,0.00,,,0.04,WSDL version 420,2013-11-22 20:52:00,
2013-11-22 15:57:00,55.6,49.5,28.05,North,-999,-999.0,-999.0,80,0.00,,,0.04,WSDL version 420,2013-11-22 20:57:00,
2013-11-22 16:02:00,55.6,49.5,28.05,North,-999,-999.0,-999.0,80,0.00,,,0.04,WSDL version 420,2013-11-22 21:02:00,
2013-11-22 16:07:00,55.6,49.6,28.05,North,-999,-999.0,-999.0,81,0.00,,,0.04,WSDL version 420,2013-11-22 21:07:00,
2013-11-22 16:12:00,55.6,49.9,28.05,North,-999,-999.0,-999.0,81,0.00,,,0.04,WSDL version 420,2013-11-22 21:12:00,
2013-11-22 16:17:00,55.6,49.9,28.05,North,-999,-999.0,-999.0,81,0.00,,,0.04,WSDL version 420,2013-11-22 21:17:00,
2013-11-22 16:22:00,55.5,49.8,28.05,North,-999,-999.0,-999.0,81,0.00,,,0.04,WSDL version 420,2013-11-22 21:22:00,
2013-11-22 16:27:00,55.4,49.7,28.05,North,-999,-999.0,-999.0,81,0.00,,,0.04,WSDL version 420,2013-11-22 21:27:00,
2013-11-22 16:32:00,55.4,49.7,28.05,North,-999,-999.0,-999.0,81,0.00,,,0.04,WSDL version 420,2013-11-22 21:32:00,
2013-11-22 16:37:00,55.4,49.7,28.05,North,-999,-999.0,-999.0,81,0.00,,,0.04,WSDL version 420,2013-11-22 21:37:00,
2013-11-22 16:42:00,55.4,49.7,28.05,North,-999,-999.0,-999.0,81,0.00,,,0.04,WSDL version 420,2013-11-22 21:42:00,
2013-11-22 16:47:00,55.4,49.7,28.05,North,-999,-999.0,-999.0,81,0.00,,,0.04,WSDL version 420,2013-11-22 21:47:00,
2013-11-22 16:52:00,55.2,49.9,28.05,North,-999,-999.0,-999.0,82,0.00,,,0.04,WSDL version 420,2013-11-22 21:52:00,
2013-11-22 16:57:00,55.2,49.9,28.05,North,-999,-999.0,-999.0,82,0.00,,,0.04,WSDL version 420,2013-11-22 21:57:00,
2013-11-22 17:02:00,55.3,50.0,28.05,North,-999,-999.0,-999.0,82,0.00,,,0.04,WSDL version 420,2013-11-22 22:02:00,
2013-11-22 17:07:00,55.3,50.0,28.05,North,-999,-999.0,-999.0,82,0.00,,,0.04,WSDL version 420,2013-11-22 22:07:00,
2013-11-22 17:12:00,55.2,49.9,28.05,North,-999,-999.0,-999.0,82,0.00,,,0.04,WSDL version 420,2013-11-22 22:12:00,
2013-11-22 17:17:00,55.2,49.9,28.02,North,-999,-999.0,-999.0,82,0.00,,,0.04,WSDL version 420,2013-11-22 22:17:00,
2013-11-22 17:22:00,55.2,49.9,28.02,North,-999,-999.0,-999.0,82,0.00,,,0.04,WSDL version 420,2013-11-22 22:22:00,
2013-11-22 17:27:00,55.3,50.0,28.02,North,-999,-999.0,-999.0,82,0.00,,,0.04,WSDL version 420,2013-11-22 22:27:00,
2013-11-22 17:32:00,55.4,50.1,28.02,North,-999,-999.0,-999.0,82,0.00,,,0.04,WSDL version 420,2013-11-22 22:32:00,
2013-11-22 17:37:00,55.3,50.1,28.02,North,-999,-999.0,-999.0,83,0.00,,,0.04,WSDL version 420,2013-11-22 22:37:00,
2013-11-22 17:42:00,55.2,50.3,28.02,North,-999,-999.0,-999.0,83,0.00,,,0.04,WSDL version 420,2013-11-22 22:42:00,
2013-11-22 17:47:00,55.2,50.1,28.02,North,-999,-999.0,-999.0,83,0.00,,,0.04,WSDL version 420,2013-11-22 22:47:00,
2013-11-22 17:52:00,55.2,50.3,28.02,North,-999,-999.0,-999.0,83,0.00,,,0.04,WSDL version 420,2013-11-22 22:52:00,
2013-11-22 17:57:00,55.2,50.3,28.02,North,-999,-999.0,-999.0,83,0.00,,,0.04,WSDL version 420,2013-11-22 22:57:00,
2013-11-22 18:02:00,55.2,50.3,28.05,North,-999,-999.0,-999.0,83,0.00,,,0.04,WSDL version 420,2013-11-22 23:02:00,
2013-11-22 18:07:00,55.2,50.3,28.05,North,-999,-999.0,-999.0,83,0.00,,,0.04,WSDL version 420,2013-11-22 23:07:00,
2013-11-22 18:12:00,55.2,50.2,28.05,North,-999,-999.0,-999.0,83,0.00,,,0.04,WSDL version 420,2013-11-22 23:12:00,
2013-11-22 18:17:00,55.0,50.1,28.02,North,-999,-999.0,-999.0,83,0.00,,,0.04,WSDL version 420,2013-11-22 23:17:00,
2013-11-22 18:22:00,55.0,50.1,28.02,North,-999,-999.0,-999.0,83,0.00,,,0.04,WSDL version 420,2013-11-22 23:22:00,
2013-11-22 18:27:00,55.0,50.0,28.02,North,-999,-999.0,-999.0,83,0.00,,,0.04,WSDL version 420,2013-11-22 23:27:00,
2013-11-22 18:32:00,54.9,49.9,28.05,North,-999,-999.0,-999.0,83,0.04,,,0.08,WSDL version 420,2013-11-22 23:32:00,
2013-11-22 18:37:00,54.9,49.9,28.05,North,-999,-999.0,-999.0,83,0.04,,,0.08,WSDL version 420,2013-11-22 23:37:00,
2013-11-22 18:42:00,54.9,49.9,28.05,North,-999,-999.0,-999.0,83,0.04,,,0.08,WSDL version 420,2013-11-22 23:42:00,
2013-11-22 18:47:00,54.9,49.9,28.05,North,-999,-999.0,-999.0,83,0.04,,,0.08,WSDL version 420,2013-11-22 23:47:00,
2013-11-22 18:52:00,54.9,49.9,28.05,North,-999,-999.0,-999.0,83,0.04,,,0.08,WSDL version 420,2013-11-22 23:52:00,
2013-11-22 18:57:00,54.9,49.9,28.05,North,-999,-999.0,-999.0,83,0.04,,,0.08,WSDL version 420,2013-11-22 23:57:00,
2013-11-22 19:02:00,54.9,50.3,28.05,North,-999,-999.0,-999.0,84,0.04,,,0.08,WSDL version 420,2013-11-23 00:02:00,
2013-11-22 19:07:00,54.9,50.3,28.05,North,-999,-999.0,-999.0,84,0.04,,,0.08,WSDL version 420,2013-11-23 00:07:00,
2013-11-22 19:12:00,54.9,50.3,28.02,North,-999,-999.0,-999.0,84,0.04,,,0.08,WSDL version 420,2013-11-23 00:12:00,
2013-11-22 19:17:00,54.9,50.3,28.05,North,-999,-999.0,-999.0,84,0.04,,,0.08,WSDL version 420,2013-11-23 00:17:00,
2013-11-22 19:27:00,54.9,50.3,28.05,North,-999,-999.0,-999.0,84,0.08,,,0.12,WSDL version 420,2013-11-23 00:27:00,
2013-11-22 19:32:00,54.9,50.3,28.05,North,-999,-999.0,-999.0,84,0.04,,,0.12,WSDL version 420,2013-11-23 00:32:00,
2013-11-22 19:37:00,54.9,50.3,28.05,North,-999,-999.0,-999.0,84,0.04,,,0.12,WSDL version 420,2013-11-23 00:37:00,
2013-11-22 19:42:00,54.9,50.3,28.05,North,-999,-999.0,-999.0,84,0.04,,,0.12,WSDL version 420,2013-11-23 00:42:00,
2013-11-22 19:47:00,54.9,50.3,28.05,North,-999,-999.0,-999.0,84,0.04,,,0.12,WSDL version 420,2013-11-23 00:47:00,
2013-11-22 19:52:00,54.9,50.3,28.05,North,-999,-999.0,-999.0,84,0.04,,,0.12,WSDL version 420,2013-11-23 00:52:00,
2013-11-22 19:57:00,54.9,50.3,28.05,North,-999,-999.0,-999.0,84,0.04,,,0.12,WSDL version 420,2013-11-23 00:57:00,
2013-11-22 20:02:00,54.9,50.3,28.05,North,-999,-999.0,-999.0,84,0.04,,,0.12,WSDL version 420,2013-11-23 01:02:00,
2013-11-22 20:07:00,54.9,50.3,28.05,North,-999,-999.0,-999.0,84,0.04,,,0.12,WSDL version 420,2013-11-23 01:07:00,
2013-11-22 20:12:00,54.9,50.3,28.05,North,-999,-999.0,-999.0,84,0.04,,,0.12,WSDL version 420,2013-11-23 01:12:00,
2013-11-22 20:17:00,54.8,50.2,28.05,North,-999,-999.0,-999.0,84,0.04,,,0.12,WSDL version 420,2013-11-23 01:17:00,
2013-11-22 20:22:00,54.7,50.1,28.05,North,-999,-999.0,-999.0,84,0.00,,,0.12,WSDL version 420,2013-11-23 01:22:00,
2013-11-22 20:27:00,54.7,50.1,28.05,North,-999,-999.0,-999.0,84,0.00,,,0.12,WSDL version 420,2013-11-23 01:27:00,
2013-11-22 20:32:00,54.7,50.1,28.05,North,-999,-999.0,-999.0,84,0.00,,,0.12,WSDL version 420,2013-11-23 01:32:00,
2013-11-22 20:37:00,54.7,50.4,28.05,North,-999,-999.0,-999.0,86,0.00,,,0.12,WSDL version 420,2013-11-23 01:37:00,
2013-11-22 20:42:00,54.7,50.4,28.05,North,-999,-999.0,-999.0,86,0.04,,,0.16,WSDL version 420,2013-11-23 01:42:00,
2013-11-22 20:47:00,54.7,50.4,28.05,North,-999,-999.0,-999.0,86,0.04,,,0.16,WSDL version 420,2013-11-23 01:47:00,
2013-11-22 20:52:00,54.7,50.4,28.05,North,-999,-999.0,-999.0,86,0.04,,,0.16,WSDL version 420,2013-11-23 01:52:00,
2013-11-22 20:57:00,54.7,50.4,28.05,North,-999,-999.0,-999.0,86,0.04,,,0.16,WSDL version 420,2013-11-23 01:57:00,
2013-11-22 21:02:00,54.7,50.4,28.05,North,-999,-999.0,-999.0,86,0.04,,,0.16,WSDL version 420,2013-11-23 02:02:00,
2013-11-22 21:07:00,54.7,50.4,28.05,North,-999,-999.0,-999.0,86,0.04,,,0.16,WSDL version 420,2013-11-23 02:07:00,
2013-11-22 21:12:00,54.7,50.4,28.05,North,-999,-999.0,-999.0,86,0.04,,,0.16,WSDL version 420,2013-11-23 02:12:00,
2013-11-22 21:17:00,54.7,50.4,28.05,North,-999,-999.0,-999.0,86,0.04,,,0.16,WSDL version 420,2013-11-23 02:17:00,
2013-11-22 21:22:00,54.7,50.4,28.05,North,-999,-999.0,-999.0,86,0.04,,,0.16,WSDL version 420,2013-11-23 02:22:00,
2013-11-22 21:27:00,54.6,50.3,28.05,North,-999,-999.0,-999.0,86,0.04,,,0.16,WSDL version 420,2013-11-23 02:27:00,
2013-11-22 21:32:00,54.5,50.3,28.05,North,-999,-999.0,-999.0,86,0.04,,,0.16,WSDL version 420,2013-11-23 02:32:00,
2013-11-22 21:37:00,54.5,50.3,28.05,North,-999,-999.0,-999.0,86,0.04,,,0.16,WSDL version 420,2013-11-23 02:37:00,
2013-11-22 21:42:00,54.5,50.3,28.05,North,-999,-999.0,-999.0,86,0.00,,,0.16,WSDL version 420,2013-11-23 02:42:00,
2013-11-22 21:47:00,54.5,50.3,28.05,North,-999,-999.0,-999.0,86,0.00,,,0.16,WSDL version 420,2013-11-23 02:47:00,
2013-11-22 21:57:00,54.5,50.3,28.05,North,-999,-999.0,-999.0,86,0.00,,,0.16,WSDL version 420,2013-11-23 02:57:00,
2013-11-22 22:02:00,54.5,50.3,28.05,North,-999,-999.0,-999.0,86,0.00,,,0.16,WSDL version 420,2013-11-23 03:02:00,
2013-11-22 22:07:00,54.5,50.3,28.05,North,-999,-999.0,-999.0,86,0.00,,,0.16,WSDL version 420,2013-11-23 03:07:00,
2013-11-22 22:12:00,54.5,50.3,28.05,North,-999,-999.0,-999.0,86,0.00,,,0.16,WSDL version 420,2013-11-23 03:12:00,
2013-11-22 22:17:00,54.5,50.3,28.05,North,-999,-999.0,-999.0,86,0.00,,,0.16,WSDL version 420,2013-11-23 03:17:00,
2013-11-22 22:22:00,54.5,50.3,28.05,North,-999,-999.0,-999.0,86,0.00,,,0.16,WSDL version 420,2013-11-23 03:22:00,
2013-11-22 22:27:00,54.5,50.3,28.05,North,-999,-999.0,-999.0,86,0.00,,,0.16,WSDL version 420,2013-11-23 03:27:00,
2013-11-22 22:32:00,54.5,50.5,28.05,North,-999,-999.0,-999.0,87,0.00,,,0.16,WSDL version 420,2013-11-23 03:32:00,
2013-11-22 22:37:00,54.5,50.6,28.05,North,-999,-999.0,-999.0,87,0.00,,,0.16,WSDL version 420,2013-11-23 03:37:00,
2013-11-22 22:42:00,54.3,50.2,28.05,North,-999,-999.0,-999.0,86,0.00,,,0.16,WSDL version 420,2013-11-23 03:42:00,
2013-11-22 22:47:00,54.1,49.9,28.02,North,-999,-999.0,-999.0,86,0.00,,,0.16,WSDL version 420,2013-11-23 03:47:00,
2013-11-22 22:52:00,54.1,49.9,28.02,North,-999,-999.0,-999.0,86,0.00,,,0.16,WSDL version 420,2013-11-23 03:52:00,
2013-11-22 22:57:00,54.0,49.8,28.02,North,-999,-999.0,-999.0,86,0.00,,,0.16,WSDL version 420,2013-11-23 03:57:00,
2013-11-22 23:02:00,53.9,49.4,28.02,North,-999,-999.0,-999.0,84,0.00,,,0.16,WSDL version 420,2013-11-23 04:02:00,
2013-11-22 23:07:00,53.8,49.2,28.02,North,-999,-999.0,-999.0,84,0.00,,,0.16,WSDL version 420,2013-11-23 04:07:00,
2013-11-22 23:12:00,53.8,49.2,28.02,North,-999,-999.0,-999.0,84,0.00,,,0.16,WSDL version 420,2013-11-23 04:12:00,
2013-11-22 23:17:00,53.5,48.9,28.05,North,-999,-999.0,-999.0,84,0.00,,,0.16,WSDL version 420,2013-11-23 04:17:00,
2013-11-22 23:22:00,53.4,48.7,28.05,North,-999,-999.0,-999.0,83,0.00,,,0.16,WSDL version 420,2013-11-23 04:22:00,
2013-11-22 23:27:00,53.4,48.5,28.05,North,-999,-999.0,-999.0,83,0.00,,,0.16,WSDL version 420,2013-11-23 04:27:00,
2013-11-22 23:32:00,53.2,48.3,28.05,North,-999,-999.0,-999.0,83,0.00,,,0.16,WSDL version 420,2013-11-23 04:32:00,
2013-11-22 23:37:00,53.2,48.1,28.05,North,-999,-999.0,-999.0,82,0.00,,,0.16,WSDL version 420,2013-11-23 04:37:00,
2013-11-22 23:42:00,53.1,47.8,28.05,North,-999,-999.0,-999.0,82,0.00,,,0.16,WSDL version 420,2013-11-23 04:42:00,
2013-11-22 23:47:00,53.1,47.8,28.05,North,-999,-999.0,-999.0,82,0.00,,,0.16,WSDL version 420,2013-11-23 04:47:00,
2013-11-22 23:52:00,53.0,47.4,28.05,North,-999,-999.0,-999.0,81,0.00,,,0.16,WSDL version 420,2013-11-23 04:52:00,
2013-11-22 23:57:00,52.9,47.3,28.05,North,-999,-999.0,-999.0,81,0.00,,,0.16,WSDL version 420,2013-11-23 04:57:00,